Time;durP1;ratioP1;P1;durP2;ratioP2;P2;SDS_P1;SDS_P2;PMS_P1;PMS_P2;Temp;Humidity;BMP_temperature;BMP_pressure;BME280_temperature;BME280_humidity;BME280_pressure;Samples;Min_cycle;Max_cycle;Signal;HPM_P1;HPM_P2
2022/04/05 00:00:29;;;;;;;13.75;7.07;;;;;;;8.91;100.00;100390.41;5051485;28;20063;-43
2022/04/05 00:02:57;;;;;;;17.02;7.70;;;;;;;8.90;100.00;100386.88;5051809;28;20049;-47
2022/04/05 00:05:25;;;;;;;19.40;6.55;;;;;;;8.90;100.00;100384.16;5050137;28;20041;-48
2022/04/05 00:07:54;;;;;;;17.48;7.35;;;;;;;8.90;100.00;100395.03;5048527;28;20403;-47
2022/04/05 00:10:22;;;;;;;15.70;6.90;;;;;;;8.91;100.00;100393.13;5032615;28;20049;-48
2022/04/05 00:12:50;;;;;;;16.60;7.32;;;;;;;8.92;100.00;100397.44;5032900;28;20385;-49
2022/04/05 00:15:17;;;;;;;17.05;6.80;;;;;;;8.93;100.00;100389.03;5050242;28;20037;-46
2022/04/05 00:17:45;;;;;;;15.73;6.82;;;;;;;8.93;100.00;100389.03;5047430;28;20412;-45
2022/04/05 00:20:13;;;;;;;18.42;7.30;;;;;;;8.95;100.00;100395.03;5032840;28;20048;-44
2022/04/05 00:22:41;;;;;;;13.73;6.00;;;;;;;8.95;100.00;100392.31;5031759;28;20046;-43
2022/04/05 00:25:08;;;;;;;14.32;6.47;;;;;;;8.96;100.00;100399.38;5033565;28;20045;-45
2022/04/05 00:27:36;;;;;;;15.32;6.80;;;;;;;8.96;100.00;100404.00;5033860;28;20045;-43
2022/04/05 00:30:05;;;;;;;15.32;6.18;;;;;;;8.96;100.00;100399.38;5052706;28;20051;-45
2022/04/05 00:32:33;;;;;;;17.48;6.80;;;;;;;8.95;100.00;100414.06;5052754;28;20044;-44
2022/04/05 00:35:00;;;;;;;13.75;6.05;;;;;;;8.96;100.00;100415.66;5033261;28;20040;-43
2022/04/05 00:37:28;;;;;;;14.63;7.20;;;;;;;8.96;100.00;100410.25;5031863;28;20037;-44
2022/04/05 00:39:56;;;;;;;11.35;5.47;;;;;;;8.96;100.00;100410.25;5049900;28;20062;-44
2022/04/05 00:42:23;;;;;;;12.63;5.53;;;;;;;8.96;100.00;100409.44;5052372;28;20037;-43
2022/04/05 00:44:51;;;;;;;9.82;4.70;;;;;;;8.96;100.00;100410.25;5038419;28;20408;-43
2022/04/05 00:47:20;;;;;;;9.85;4.65;;;;;;;8.95;100.00;100408.63;5034931;28;20046;-47
2022/04/05 00:49:50;;;;;;;9.48;4.20;;;;;;;8.95;100.00;100414.06;5052310;28;20045;-48
2022/04/05 00:52:19;;;;;;;8.18;3.97;;;;;;;8.95;100.00;100414.06;5052295;28;20071;-47
2022/04/05 00:54:50;;;;;;;7.53;4.13;;;;;;;8.94;100.00;100406.16;5036251;28;20049;-48
2022/04/05 00:57:20;;;;;;;9.63;4.25;;;;;;;8.94;100.00;100412.41;5036385;28;20045;-46
2022/04/05 00:59:55;;;;;;;7.47;4.47;;;;;;;8.94;100.00;100415.13;5035968;28;20419;-47
2022/04/05 01:02:26;;;;;;;8.35;4.15;;;;;;;8.94;100.00;100417.03;5034727;28;20042;-47
2022/04/05 01:04:55;;;;;;;9.15;4.35;;;;;;;8.92;100.00;100406.44;5037426;28;20462;-48
2022/04/05 01:07:23;;;;;;;8.15;4.60;;;;;;;8.94;100.00;100414.31;5035861;28;20041;-47
2022/04/05 01:09:54;;;;;;;8.07;4.60;;;;;;;8.94;100.00;100423.28;5034427;28;20598;-50
2022/04/05 01:12:22;;;;;;;8.30;4.78;;;;;;;8.94;100.00;100417.84;5035815;28;20069;-51
2022/04/05 01:14:50;;;;;;;9.30;5.28;;;;;;;8.94;100.00;100417.84;5035563;28;20038;-50
2022/04/05 01:17:18;;;;;;;10.95;5.53;;;;;;;8.95;100.00;100411.34;5028869;28;20041;-47
2022/04/05 01:19:47;;;;;;;10.00;5.43;;;;;;;8.95;100.00;100413.25;5055635;28;20052;-47
2022/04/05 01:22:15;;;;;;;10.07;5.10;;;;;;;8.95;100.00;100414.06;5055615;28;20049;-48
2022/04/05 01:24:43;;;;;;;10.02;5.60;;;;;;;8.96;100.00;100426.53;5036700;28;20034;-49
2022/04/05 01:27:17;;;;;;;10.65;5.97;;;;;;;8.98;100.00;100422.75;5039969;28;20513;-48
2022/04/05 01:29:46;;;;;;;9.15;5.50;;;;;;;8.98;100.00;100423.56;5054610;28;20132;-48
2022/04/05 01:32:14;;;;;;;10.45;5.45;;;;;;;8.99;100.00;100424.38;5027991;28;20048;-47
2022/04/05 01:34:41;;;;;;;12.73;5.78;;;;;;;8.99;100.00;100424.38;5035574;28;20444;-49
2022/04/05 01:37:11;;;;;;;11.60;5.93;;;;;;;8.99;100.00;100417.03;5048411;28;20487;-47
2022/04/05 01:39:41;;;;;;;10.25;5.43;;;;;;;9.00;100.00;100426.03;5055774;28;20053;-48
2022/04/05 01:42:14;;;;;;;11.13;6.30;;;;;;;9.00;100.00;100429.56;5048149;28;20056;-45
2022/04/05 01:44:43;;;;;;;9.23;5.57;;;;;;;9.00;100.00;100424.13;5035727;28;20455;-48
2022/04/05 01:47:13;;;;;;;10.93;5.68;;;;;;;9.00;100.00;100420.59;5035487;28;20068;-44
2022/04/05 01:49:42;;;;;;;10.13;5.65;;;;;;;9.01;100.00;100427.66;5035413;28;20051;-42
2022/04/05 01:52:10;;;;;;;10.77;5.60;;;;;;;8.99;100.00;100438.78;5047176;28;20045;-45
2022/04/05 01:54:39;;;;;;;9.30;5.78;;;;;;;9.00;100.00;100431.47;5054781;28;20045;-51
2022/04/05 01:57:06;;;;;;;9.38;5.72;;;;;;;8.99;100.00;100436.06;5049672;28;20483;-48
2022/04/05 01:59:36;;;;;;;10.77;5.78;;;;;;;8.99;100.00;100436.06;5053861;28;20463;-45
2022/04/05 02:02:08;;;;;;;10.70;5.75;;;;;;;8.99;100.00;100435.25;5042792;28;20495;-45
2022/04/05 02:04:36;;;;;;;11.27;5.88;;;;;;;8.99;100.00;100427.09;5053031;28;20132;-46
2022/04/05 02:07:20;;;;;;;13.13;5.85;;;;;;;8.97;100.00;100432.78;5042278;28;20037;-50
2022/04/05 02:09:49;;;;;;;11.02;5.57;;;;;;;8.98;100.00;100433.63;5054588;28;20048;-45
2022/04/05 02:12:18;;;;;;;8.98;5.25;;;;;;;8.97;100.00;100424.63;5016861;28;20049;-45
2022/04/05 02:14:57;;;;;;;11.15;5.75;;;;;;;9.00;100.00;100442.34;5034529;28;20124;-44
2022/04/05 02:17:48;;;;;;;9.00;5.22;;;;;;;8.98;100.00;100439.06;5036358;28;20053;-43
2022/04/05 02:20:20;;;;;;;8.48;4.93;;;;;;;8.98;100.00;100434.44;5033819;28;20377;-43
2022/04/05 02:22:48;;;;;;;7.95;5.07;;;;;;;8.98;100.00;100434.44;5035655;28;20108;-45
2022/04/05 02:25:26;;;;;;;8.15;4.97;;;;;;;8.98;100.00;100439.88;5045347;28;20037;-50
2022/04/05 02:27:57;;;;;;;9.35;5.38;;;;;;;8.97;100.00;100438.22;5034659;28;20459;-44
2022/04/05 02:30:34;;;;;;;10.85;5.43;;;;;;;8.96;100.00;100440.13;5034613;28;20045;-45
2022/04/05 02:33:05;;;;;;;9.50;5.20;;;;;;;8.98;100.00;100433.63;5021611;28;20500;-46
2022/04/05 02:35:33;;;;;;;10.18;5.47;;;;;;;8.98;100.00;100441.78;5040606;28;20037;-44
2022/04/05 02:38:02;;;;;;;8.23;5.18;;;;;;;8.98;100.00;100441.78;5041909;28;20037;-43
2022/04/05 02:40:33;;;;;;;9.48;5.00;;;;;;;8.96;100.00;100442.84;5032891;28;20048;-44
2022/04/05 02:43:03;;;;;;;9.35;4.80;;;;;;;8.96;100.00;100442.03;5023471;28;20048;-47
2022/04/05 02:45:32;;;;;;;9.80;4.85;;;;;;;8.96;100.00;100440.13;5019389;28;20128;-43
2022/04/05 02:48:00;;;;;;;7.88;4.40;;;;;;;8.95;100.00;100441.22;5052893;28;20045;-45
2022/04/05 02:50:28;;;;;;;7.65;4.32;;;;;;;8.96;100.00;100431.97;5052811;28;20052;-45
2022/04/05 02:52:58;;;;;;;7.03;4.68;;;;;;;8.96;100.00;100442.03;5036727;28;20038;-44
2022/04/05 02:55:26;;;;;;;10.35;4.68;;;;;;;8.95;100.00;100435.78;5040490;28;20041;-42
2022/04/05 02:57:54;;;;;;;7.90;4.40;;;;;;;8.96;100.00;100434.69;5036371;28;20044;-44
2022/04/05 03:00:29;;;;;;;7.47;4.47;;;;;;;8.98;100.00;100436.34;5036868;28;20047;-46
2022/04/05 03:03:01;;;;;;;6.65;4.60;;;;;;;8.97;100.00;100421.91;5050572;28;20125;-50
2022/04/05 03:05:29;;;;;;;8.95;4.88;;;;;;;8.98;100.00;100428.19;5047502;28;20108;-51
2022/04/05 03:08:03;;;;;;;8.95;5.20;;;;;;;9.00;100.00;100431.47;5032658;28;20531;-51
2022/04/05 03:10:32;;;;;;;8.05;5.10;;;;;;;9.00;100.00;100426.84;5032161;28;20062;-46
2022/04/05 03:13:03;;;;;;;8.25;5.43;;;;;;;9.00;100.00;100428.75;5034904;28;20128;-50
2022/04/05 03:15:31;;;;;;;7.80;5.55;;;;;;;9.00;100.00;100431.47;5032223;28;20504;-49
2022/04/05 03:18:01;;;;;;;8.45;5.60;;;;;;;9.01;100.00;100430.38;5032261;28;20045;-47
2022/04/05 03:20:31;;;;;;;8.20;5.18;;;;;;;9.00;100.00;100431.47;5032556;28;20037;-48
2022/04/05 03:23:01;;;;;;;7.97;4.97;;;;;;;8.99;100.00;100443.41;5017723;28;20450;-50
2022/04/05 03:25:28;;;;;;;7.85;5.78;;;;;;;8.98;100.00;100448.03;5039466;28;20064;-48
2022/04/05 03:28:04;;;;;;;9.80;5.30;;;;;;;8.98;100.00;100439.06;5052269;28;20060;-46
2022/04/05 03:30:34;;;;;;;10.82;6.15;;;;;;;8.98;100.00;100436.34;5052326;28;20514;-48
2022/04/05 03:33:04;;;;;;;8.77;5.80;;;;;;;8.97;100.00;100435.50;5035680;28;20127;-49
2022/04/05 03:35:33;;;;;;;8.45;5.60;;;;;;;8.98;100.00;100433.63;5032438;28;20050;-50
2022/04/05 03:38:02;;;;;;;9.90;6.07;;;;;;;8.99;100.00;100435.25;5031920;28;20041;-53
2022/04/05 03:40:31;;;;;;;9.70;6.70;;;;;;;9.00;100.00;100426.03;5041341;28;20566;-49
2022/04/05 03:43:01;;;;;;;8.90;6.30;;;;;;;9.00;100.00;100426.03;5052089;28;20044;-50
2022/04/05 03:45:30;;;;;;;10.65;6.80;;;;;;;8.99;100.00;100429.81;5045391;28;20044;-48
2022/04/05 03:47:58;;;;;;;10.88;6.50;;;;;;;8.99;100.00;100435.25;5051730;28;20056;-47
2022/04/05 03:50:27;;;;;;;9.48;5.85;;;;;;;8.99;100.00;100425.19;5052100;28;20491;-48
2022/04/05 03:52:59;;;;;;;9.57;6.82;;;;;;;8.99;100.00;100435.25;5050934;28;20041;-49
2022/04/05 03:55:30;;;;;;;10.75;6.30;;;;;;;8.99;100.00;100424.38;5050742;28;20567;-48
2022/04/05 03:58:00;;;;;;;10.63;6.90;;;;;;;8.99;100.00;100437.97;5051801;28;20041;-52
2022/04/05 04:00:29;;;;;;;9.50;6.03;;;;;;;8.99;100.00;100424.38;5051974;28;20141;-48
2022/04/05 04:03:09;;;;;;;10.05;6.78;;;;;;;8.99;100.00;100430.63;5049432;28;20509;-47
2022/04/05 04:05:37;;;;;;;11.48;5.97;;;;;;;8.99;100.00;100425.19;5015313;28;20053;-44
2022/04/05 04:08:07;;;;;;;9.02;5.95;;;;;;;8.99;100.00;100424.38;5031853;28;20045;-49
2022/04/05 04:10:35;;;;;;;11.55;6.10;;;;;;;9.01;100.00;100424.94;5031705;28;20053;-46
2022/04/05 04:13:05;;;;;;;9.18;5.35;;;;;;;9.00;100.00;100415.16;5036136;28;20048;-50
2022/04/05 04:15:38;;;;;;;10.52;6.10;;;;;;;9.00;100.00;100417.88;5051072;28;20115;-48
2022/04/05 04:18:07;;;;;;;9.32;5.90;;;;;;;9.00;100.00;100420.59;5052749;28;20080;-47
2022/04/05 04:20:42;;;;;;;10.05;6.28;;;;;;;9.01;100.00;100424.94;5033078;28;20510;-50
2022/04/05 04:23:11;;;;;;;10.32;6.32;;;;;;;9.01;100.00;100417.59;5033306;28;20082;-48
2022/04/05 04:25:48;;;;;;;10.02;6.50;;;;;;;9.02;100.00;100419.25;5030739;28;20049;-47
2022/04/05 04:28:16;;;;;;;10.73;6.68;;;;;;;9.03;100.00;100414.63;5034050;28;20038;-48
2022/04/05 04:30:44;;;;;;;11.10;6.35;;;;;;;9.03;100.00;100409.19;5034752;28;20483;-47
2022/04/05 04:33:13;;;;;;;9.15;6.03;;;;;;;9.04;100.00;100421.66;5047614;28;20053;-48
2022/04/05 04:35:42;;;;;;;9.90;6.05;;;;;;;9.05;100.00;100412.44;5036217;28;20042;-52
2022/04/05 04:38:12;;;;;;;9.85;6.38;;;;;;;9.04;100.00;100416.25;5034397;28;20037;-51
2022/04/05 04:40:40;;;;;;;10.07;5.90;;;;;;;9.05;100.00;100412.44;5035835;28;20423;-51
2022/04/05 04:43:07;;;;;;;9.23;5.90;;;;;;;9.05;100.00;100407.81;5048160;28;20056;-52
2022/04/05 04:45:36;;;;;;;9.13;6.22;;;;;;;9.06;100.00;100411.34;5055657;28;20041;-52
2022/04/05 04:48:04;;;;;;;8.70;6.20;;;;;;;9.06;100.00;100417.59;5055635;28;20045;-49
2022/04/05 04:50:31;;;;;;;9.95;6.40;;;;;;;9.07;100.00;100407.56;5055328;28;20049;-51
2022/04/05 04:52:59;;;;;;;9.48;5.60;;;;;;;9.07;100.00;100413.81;5037065;28;20068;-49
2022/04/05 04:55:28;;;;;;;9.10;5.63;;;;;;;9.08;100.00;100415.44;5036483;28;20049;-47
2022/04/05 04:58:15;;;;;;;10.90;5.75;;;;;;;9.07;100.00;100416.53;5035217;28;20052;-49
2022/04/05 05:00:44;;;;;;;11.55;6.75;;;;;;;9.07;100.00;100421.97;5036345;28;20050;-48
2022/04/05 05:03:12;;;;;;;10.73;7.10;;;;;;;9.07;100.00;100426.59;5051160;28;20037;-48
2022/04/05 05:05:40;;;;;;;10.07;6.95;;;;;;;9.04;100.00;100421.66;5056498;28;20413;-48
2022/04/05 05:08:08;;;;;;;10.63;7.50;;;;;;;9.02;100.00;100429.28;5054924;28;20053;-52
2022/04/05 05:10:36;;;;;;;12.85;7.60;;;;;;;9.01;100.00;100428.47;5047716;28;20049;-48
2022/04/05 05:13:04;;;;;;;12.02;7.55;;;;;;;9.00;100.00;100432.28;5036776;28;20540;-51
2022/04/05 05:15:31;;;;;;;10.95;6.80;;;;;;;9.00;100.00;100426.03;5034247;28;20073;-52
2022/04/05 05:17:59;;;;;;;11.43;7.25;;;;;;;9.01;100.00;100438.53;5035797;28;20460;-47
2022/04/05 05:20:27;;;;;;;11.43;7.90;;;;;;;9.02;100.00;100434.69;5036837;28;20033;-50
2022/04/05 05:22:54;;;;;;;11.60;7.50;;;;;;;9.04;100.00;100427.09;5035428;28;20038;-48
2022/04/05 05:25:22;;;;;;;10.38;7.40;;;;;;;9.03;100.00;100434.44;5036630;28;20045;-48
2022/04/05 05:27:49;;;;;;;11.63;7.55;;;;;;;9.03;100.00;100430.91;5035478;28;20434;-51
2022/04/05 05:30:17;;;;;;;11.35;8.05;;;;;;;9.04;100.00;100429.81;5035560;28;20053;-48
2022/04/05 05:32:51;;;;;;;10.27;7.30;;;;;;;9.04;100.00;100437.97;5053134;28;20053;-51
2022/04/05 05:35:21;;;;;;;10.98;7.72;;;;;;;9.05;100.00;100436.91;5035366;28;20128;-46
2022/04/05 05:37:50;;;;;;;11.65;8.05;;;;;;;9.03;100.00;100430.91;5050651;28;20041;-45
2022/04/05 05:40:18;;;;;;;13.98;7.70;;;;;;;9.04;100.00;100438.78;5054088;28;20048;-48
2022/04/05 05:42:55;;;;;;;13.40;8.05;;;;;;;9.04;100.00;100448.84;5040045;28;20475;-52
2022/04/05 05:45:23;;;;;;;11.15;7.40;;;;;;;9.04;100.00;100446.13;5036209;28;20045;-51
2022/04/05 05:47:51;;;;;;;13.52;7.97;;;;;;;9.05;100.00;100447.78;5034885;28;20041;-49
2022/04/05 05:50:20;;;;;;;11.75;7.40;;;;;;;9.05;100.00;100451.31;4695106;28;10000154;-51
2022/04/05 05:52:48;;;;;;;11.57;7.03;;;;;;;9.04;100.00;100444.22;5033057;28;20137;-49
2022/04/05 05:55:17;;;;;;;12.00;7.72;;;;;;;9.05;100.00;100445.06;5051103;28;20048;-50
2022/04/05 05:57:45;;;;;;;10.63;6.63;;;;;;;9.04;100.00;100446.94;5051822;28;20119;-50
2022/04/05 06:00:21;;;;;;;10.98;7.57;;;;;;;9.03;100.00;100452.66;5051600;28;20111;-51
2022/04/05 06:02:56;;;;;;;12.77;7.85;;;;;;;9.02;100.00;100457.28;5031850;28;20050;-49
2022/04/05 06:05:27;;;;;;;11.73;7.80;;;;;;;9.03;100.00;100447.22;5031299;28;20042;-50
2022/04/05 06:07:56;;;;;;;10.73;7.63;;;;;;;9.01;100.00;100455.63;5046765;28;20042;-50
2022/04/05 06:10:24;;;;;;;11.40;8.05;;;;;;;9.02;100.00;100457.28;5031903;28;20057;-49
2022/04/05 06:12:55;;;;;;;11.40;7.90;;;;;;;9.04;100.00;100462.44;5031392;28;20041;-50
2022/04/05 06:15:25;;;;;;;10.88;7.97;;;;;;;9.04;100.00;100457.00;5032596;28;20452;-49
2022/04/05 06:17:53;;;;;;;12.05;7.82;;;;;;;9.05;100.00;100456.75;5031017;28;20059;-51
2022/04/05 06:20:22;;;;;;;13.77;8.52;;;;;;;9.04;100.00;100465.16;5031073;28;20408;-47
2022/04/05 06:22:52;;;;;;;15.40;8.95;;;;;;;9.04;100.00;100471.41;5049381;28;20052;-47
2022/04/05 06:25:22;;;;;;;12.05;8.25;;;;;;;9.06;100.00;100465.72;5038215;28;20427;-51
2022/04/05 06:27:49;;;;;;;11.38;7.95;;;;;;;9.08;100.00;100471.69;5029855;28;20045;-47
2022/04/05 06:30:18;;;;;;;15.80;8.57;;;;;;;9.08;100.00;100466.25;5034429;28;20475;-52
2022/04/05 06:32:47;;;;;;;12.82;8.45;;;;;;;9.08;100.00;100474.41;5048914;28;20053;-48
2022/04/05 06:35:15;;;;;;;13.30;8.30;;;;;;;9.11;100.00;100471.16;5040385;28;20053;-50
2022/04/05 06:37:44;;;;;;;13.68;8.48;;;;;;;9.10;100.00;100469.53;5029038;28;20080;-52
2022/04/05 06:40:15;;;;;;;15.43;9.13;;;;;;;9.10;100.00;100480.41;5029473;28;20050;-47
2022/04/05 06:42:43;;;;;;;14.15;7.80;;;;;;;9.12;100.00;100480.97;5033011;28;20107;-54
2022/04/05 06:45:17;;;;;;;12.48;6.97;;;;;;;9.15;100.00;100483.13;5035195;28;20041;-51
2022/04/05 06:47:45;;;;;;;12.52;8.13;;;;;;;9.16;100.00;100487.47;5032865;28;20049;-50
2022/04/05 06:50:14;;;;;;;10.40;7.10;;;;;;;9.16;100.00;100491.03;5032285;28;20038;-51
2022/04/05 06:52:42;;;;;;;11.82;7.25;;;;;;;9.19;100.00;100484.25;5033497;28;20053;-51
2022/04/05 06:55:11;;;;;;;11.98;6.80;;;;;;;9.21;100.00;100492.94;5017037;28;20050;-49
2022/04/05 06:57:39;;;;;;;13.93;7.05;;;;;;;9.23;100.00;100490.75;5034137;28;20053;-48
2022/04/05 07:00:10;;;;;;;12.55;6.95;;;;;;;9.25;100.00;100488.59;5033806;28;20041;-48
2022/04/05 07:02:38;;;;;;;13.00;6.70;;;;;;;9.26;100.00;100486.69;5032562;28;20059;-48
2022/04/05 07:05:07;;;;;;;12.70;6.95;;;;;;;9.25;100.00;100494.03;5032171;28;20077;-49
2022/04/05 07:07:34;;;;;;;8.65;5.65;;;;;;;9.26;100.00;100495.69;5034555;28;20493;-48
2022/04/05 07:10:02;;;;;;;11.45;6.43;;;;;;;9.26;100.00;100501.13;5033459;28;20042;-48
2022/04/05 07:12:31;;;;;;;11.98;5.95;;;;;;;9.27;100.00;100497.31;5033959;28;20092;-50
2022/04/05 07:14:59;;;;;;;9.73;5.70;;;;;;;9.27;100.00;100496.50;5033274;28;20041;-47
2022/04/05 07:17:27;;;;;;;13.32;6.10;;;;;;;9.28;100.00;100493.50;5034636;28;20045;-48
2022/04/05 07:20:14;;;;;;;10.63;5.82;;;;;;;9.31;100.00;100492.97;5040536;28;20128;-51
2022/04/05 07:22:47;;;;;;;15.02;6.95;;;;;;;9.30;100.00;100485.91;5051403;28;20045;-50
2022/04/05 07:25:18;;;;;;;11.20;5.95;;;;;;;9.30;100.00;100491.31;5040397;28;20503;-51
2022/04/05 07:27:46;;;;;;;11.40;6.20;;;;;;;9.30;100.00;100493.25;5044904;28;20071;-51
2022/04/05 07:30:14;;;;;;;12.55;6.60;;;;;;;9.33;100.00;100485.38;5040842;28;20049;-50
2022/04/05 07:32:44;;;;;;;12.65;7.07;;;;;;;9.36;100.00;100473.16;5040580;28;20055;-50
2022/04/05 07:35:13;;;;;;;11.55;6.88;;;;;;;9.40;100.00;100485.09;5044020;28;20052;-48
2022/04/05 07:37:41;;;;;;;12.70;6.82;;;;;;;9.42;100.00;100488.38;5040413;28;20051;-51
2022/04/05 07:40:10;;;;;;;11.68;6.63;;;;;;;9.41;100.00;100488.66;5035010;28;20079;-48
2022/04/05 07:42:40;;;;;;;11.27;6.78;;;;;;;9.45;100.00;100487.00;5043281;28;20037;-50
2022/04/05 07:45:08;;;;;;;13.70;7.10;;;;;;;9.48;100.00;100478.34;5055135;28;20075;-49
2022/04/05 07:47:37;;;;;;;16.40;7.05;;;;;;;9.45;100.00;100487.81;5033564;28;20042;-49
2022/04/05 07:50:06;;;;;;;14.15;6.95;;;;;;;9.45;100.00;100487.00;5033017;28;20038;-49
2022/04/05 07:52:34;;;;;;;13.40;6.95;;;;;;;9.43;100.00;100481.03;5048227;28;20427;-50
2022/04/05 07:55:02;;;;;;;10.68;6.40;;;;;;;9.42;100.00;100484.84;5032793;28;20049;-50
2022/04/05 07:57:29;;;;;;;14.35;6.35;;;;;;;9.43;100.00;100489.19;5033322;28;20049;-50
2022/04/05 07:59:58;;;;;;;12.05;5.90;;;;;;;9.44;100.00;100490.84;5032937;28;20046;-50
2022/04/05 08:02:26;;;;;;;13.15;6.32;;;;;;;9.44;100.00;100496.28;5033290;28;20465;-50
2022/04/05 08:05:00;;;;;;;11.30;5.97;;;;;;;9.44;100.00;100491.66;5037916;28;20385;-51
2022/04/05 08:07:28;;;;;;;10.75;6.43;;;;;;;9.43;100.00;100505.50;5037009;28;20042;-50
2022/04/05 08:09:57;;;;;;;11.43;6.22;;;;;;;9.42;100.00;100503.88;5036719;28;20052;-48
2022/04/05 08:12:24;;;;;;;12.90;6.20;;;;;;;9.42;100.00;100488.38;5036267;28;20053;-50
2022/04/05 08:14:52;;;;;;;15.23;6.13;;;;;;;9.43;100.00;100497.34;5036383;28;20041;-49
2022/04/05 08:17:20;;;;;;;11.07;6.00;;;;;;;9.46;100.00;100504.97;5036777;28;20092;-49
2022/04/05 08:19:47;;;;;;;11.00;5.95;;;;;;;9.46;100.00;100496.81;5037763;28;20380;-48
2022/04/05 08:22:15;;;;;;;9.57;5.70;;;;;;;9.47;100.00;100501.16;5037152;28;20045;-47
2022/04/05 08:24:43;;;;;;;11.35;5.80;;;;;;;9.49;100.00;100505.25;5035758;28;20052;-53
2022/04/05 08:27:11;;;;;;;16.55;7.05;;;;;;;9.51;100.00;100502.28;5036744;28;20037;-48
2022/04/05 08:29:41;;;;;;;9.52;5.88;;;;;;;9.52;100.00;100503.91;5038032;28;20157;-46
2022/04/05 08:32:09;;;;;;;12.48;6.45;;;;;;;9.53;100.00;100505.53;5036597;28;20500;-51
2022/04/05 08:34:41;;;;;;;11.45;5.60;;;;;;;9.52;100.00;100510.16;5036728;28;20403;-50
2022/04/05 08:37:09;;;;;;;11.55;5.10;;;;;;;9.55;100.00;100512.34;5036597;28;20495;-49
2022/04/05 08:39:37;;;;;;;10.13;5.15;;;;;;;9.57;100.00;100509.34;5055333;28;20048;-49
2022/04/05 08:42:06;;;;;;;11.00;5.72;;;;;;;9.57;100.00;100517.50;5054801;28;20045;-49
2022/04/05 08:44:34;;;;;;;11.43;4.88;;;;;;;9.56;100.00;100510.44;5055958;28;20111;-49
2022/04/05 08:47:03;;;;;;;10.98;5.90;;;;;;;9.56;100.00;100515.88;5056192;28;20436;-50
2022/04/05 08:49:32;;;;;;;10.80;5.63;;;;;;;9.57;100.00;100520.22;5053949;28;20040;-50
2022/04/05 08:52:00;;;;;;;11.43;5.35;;;;;;;9.60;100.00;100516.97;5055762;28;20483;-51
2022/04/05 08:54:27;;;;;;;10.63;5.50;;;;;;;9.62;100.00;100519.41;5055677;28;20052;-53
2022/04/05 08:56:55;;;;;;;10.95;5.55;;;;;;;9.66;100.00;100523.25;5056089;28;20470;-49
2022/04/05 08:59:23;;;;;;;13.27;5.30;;;;;;;9.64;100.00;100523.50;5036169;28;20041;-51
2022/04/05 09:01:53;;;;;;;10.23;5.10;;;;;;;9.65;100.00;100527.06;5035601;28;20171;-49
2022/04/05 09:04:21;;;;;;;11.88;5.55;;;;;;;9.63;100.00;100538.19;5035960;28;20049;-51
2022/04/05 09:06:49;;;;;;;9.40;4.15;;;;;;;9.64;100.00;100523.50;5035608;28;20071;-51
2022/04/05 09:09:17;;;;;;;10.82;4.80;;;;;;;9.62;100.00;100524.84;5035437;28;20492;-47
2022/04/05 09:11:56;;;;;;;13.65;5.35;;;;;;;9.61;100.00;100521.31;5035244;28;20068;-50
2022/04/05 09:14:25;;;;;;;11.27;4.53;;;;;;;9.63;100.00;100527.31;5033080;28;20049;-49
2022/04/05 09:17:13;;;;;;;10.70;5.25;;;;;;;9.63;100.00;100530.03;5034133;28;20042;-50
2022/04/05 09:19:46;;;;;;;10.07;4.50;;;;;;;9.66;100.00;100526.78;5054494;28;20446;-49
2022/04/05 09:22:13;;;;;;;10.50;4.43;;;;;;;9.67;100.00;100533.03;5053342;28;20033;-49
2022/04/05 09:24:45;;;;;;;8.05;4.30;;;;;;;9.70;100.00;100527.88;5054085;28;20102;-51
2022/04/05 09:27:13;;;;;;;9.82;4.53;;;;;;;9.72;100.00;100533.06;5053593;28;20041;-55
2022/04/05 09:29:42;;;;;;;8.98;4.30;;;;;;;9.73;100.00;100532.78;5035772;28;20045;-53
2022/04/05 09:32:11;;;;;;;10.73;4.88;;;;;;;9.74;100.00;100536.31;5033139;28;20046;-51
2022/04/05 09:34:50;;;;;;;7.93;4.25;;;;;;;9.76;100.00;100532.22;5033210;28;20048;-50
2022/04/05 09:37:26;;;;;;;9.35;4.28;;;;;;;9.76;100.00;100536.84;5039255;28;20407;-51
2022/04/05 09:39:55;;;;;;;9.87;4.60;;;;;;;9.74;100.00;100534.41;5054055;28;20045;-50
2022/04/05 09:42:22;;;;;;;6.90;3.90;;;;;;;9.77;100.00;100546.66;5053890;28;20423;-51
2022/04/05 09:44:50;;;;;;;7.20;4.00;;;;;;;9.74;100.00;100548.03;5052702;28;20041;-50
2022/04/05 09:47:22;;;;;;;9.18;4.22;;;;;;;9.77;100.00;100538.50;5051081;28;20116;-47
2022/04/05 09:49:50;;;;;;;7.53;4.10;;;;;;;9.80;100.00;100536.03;5054155;28;20432;-50
2022/04/05 09:52:30;;;;;;;8.20;4.18;;;;;;;9.82;100.00;100547.47;5053909;28;20071;-46
2022/04/05 09:55:15;;;;;;;10.60;4.68;;;;;;;9.86;100.00;100541.50;5052346;28;20052;-51
2022/04/05 09:57:43;;;;;;;10.90;4.25;;;;;;;9.89;100.00;100538.25;5052208;28;20045;-50
2022/04/05 10:00:16;;;;;;;12.10;4.68;;;;;;;9.90;100.00;100537.16;5052285;28;20466;-51
2022/04/05 10:03:05;;;;;;;9.32;4.35;;;;;;;9.90;100.00;100543.41;5052661;28;20072;-50
2022/04/05 10:05:34;;;;;;;9.32;4.53;;;;;;;9.92;100.00;100540.44;5053572;28;20601;-51
2022/04/05 10:08:03;;;;;;;10.18;4.47;;;;;;;9.91;100.00;100545.06;5052369;28;20518;-52
2022/04/05 10:10:30;;;;;;;10.22;4.98;;;;;;;9.90;100.00;100542.59;5013845;28;1085777;-55
2022/04/05 10:12:58;;;;;;;7.70;4.28;;;;;;;9.88;100.00;100553.75;5054590;28;20413;-52
2022/04/05 10:15:28;;;;;;;7.90;4.70;;;;;;;9.86;100.00;100546.94;5047639;28;20041;-51
2022/04/05 10:17:57;;;;;;;6.65;4.00;;;;;;;9.85;100.00;100557.00;5039518;28;20452;-49
2022/04/05 10:20:25;;;;;;;7.88;4.53;;;;;;;9.83;100.00;100548.28;5034973;28;20053;-51
2022/04/05 10:22:56;;;;;;;9.10;4.30;;;;;;;9.84;100.00;100551.81;5034450;28;20441;-48
2022/04/05 10:25:25;;;;;;;9.32;4.70;;;;;;;9.82;100.00;100552.94;5046704;28;20041;-49
2022/04/05 10:27:53;;;;;;;7.68;4.60;;;;;;;9.80;100.00;100552.38;5050635;28;20041;-50
2022/04/05 10:30:42;;;;;;;7.40;3.95;;;;;;;9.80;100.00;100557.81;5054021;28;20037;-50
2022/04/05 10:33:32;;;;;;;7.90;4.03;;;;;;;9.82;100.00;100561.09;5053918;28;20064;-51
2022/04/05 10:36:00;;;;;;;9.20;4.32;;;;;;;9.85;100.00;100557.00;5051990;28;20041;-53
2022/04/05 10:38:30;;;;;;;8.40;4.22;;;;;;;9.90;100.00;100548.03;5033084;28;20034;-51
2022/04/05 10:41:18;;;;;;;6.57;4.22;;;;;;;9.94;100.00;100551.88;5034197;28;20045;-49
2022/04/05 10:43:49;;;;;;;10.35;4.68;;;;;;;9.94;100.00;100557.31;5033634;28;20038;-51
2022/04/05 10:46:40;;;;;;;9.32;4.75;;;;;;;9.94;100.00;100549.16;5033792;28;20508;-54
2022/04/05 10:49:48;;;;;;;10.25;4.50;;;;;;;9.96;100.00;100549.69;5045864;28;20041;-50
2022/04/05 10:52:23;;;;;;;12.18;5.45;;;;;;;9.98;100.00;100550.22;5037621;28;20598;-52
2022/04/05 10:55:04;;;;;;;10.98;4.50;;;;;;;9.97;100.00;100548.59;5038609;28;20049;-52
2022/04/05 10:57:35;;;;;;;10.07;5.05;;;;;;;9.98;100.00;100550.22;5034291;28;20049;-48
2022/04/05 11:00:25;;;;;;;8.18;4.80;;;;;;;10.00;100.00;100542.59;5047110;28;20055;-48
2022/04/05 11:02:53;;;;;;;10.15;4.50;;;;;;;10.02;100.00;100545.88;5046991;28;20104;-56
2022/04/05 11:05:25;;;;;;;11.55;4.95;;;;;;;10.03;100.00;100547.53;5049688;28;20045;-51
2022/04/05 11:07:52;;;;;;;9.35;4.45;;;;;;;10.05;100.00;100549.94;5051168;28;20440;-49
2022/04/05 11:10:22;;;;;;;7.82;4.53;;;;;;;10.04;100.00;100549.16;5053519;28;20041;-49
2022/04/05 11:13:05;;;;;;;8.27;4.47;;;;;;;10.06;100.00;100552.41;4349851;28;9999925;-51
2022/04/05 11:15:47;;;;;;;8.43;4.45;;;;;;;10.08;100.00;100552.97;5044722;28;20091;-52
2022/04/05 11:18:16;;;;;;;9.45;4.90;;;;;;;10.07;100.00;100548.59;5050064;28;20045;-51
2022/04/05 11:20:45;;;;;;;7.95;4.18;;;;;;;10.09;100.00;100551.88;5050203;28;20049;-51
2022/04/05 11:23:16;;;;;;;10.75;4.63;;;;;;;10.15;100.00;100548.06;5040636;28;20069;-51
2022/04/05 11:25:44;;;;;;;8.68;4.45;;;;;;;10.19;100.00;100551.06;5026424;28;20065;-50
2022/04/05 11:28:17;;;;;;;9.10;4.63;;;;;;;10.19;100.00;100551.88;5028752;28;20053;-49
2022/04/05 11:31:02;;;;;;;8.35;4.30;;;;;;;10.23;100.00;100552.16;5030222;28;20128;-50
2022/04/05 11:33:31;;;;;;;9.43;4.80;;;;;;;10.28;100.00;100557.63;5036624;28;20048;-52